Time;durP1;ratioP1;P1;durP2;ratioP2;P2;SDS_P1;SDS_P2;PMS_P1;PMS_P2;Temp;Humidity;BMP_temperature;BMP_pressure;BME280_temperature;BME280_humidity;BME280_pressure;Samples;Min_cycle;Max_cycle;Signal;HPM_P1;HPM_P2
2023/10/11 00:01:29;;;;;;;45.30;40.40;;;;;;;-128.00;-1.00;-1.00;105890;1249;1062011;-70
2023/10/11 00:03:58;;;;;;;53.10;45.10;;;;;;;-128.00;-1.00;-1.00;105937;1250;1004416;-70
2023/10/11 00:06:26;;;;;;;50.20;43.20;;;;;;;-128.00;-1.00;-1.00;105934;1250;1059012;-70
2023/10/11 00:08:53;;;;;;;54.50;45.60;;;;;;;-128.00;-1.00;-1.00;105906;1250;1003828;-70
2023/10/11 00:11:24;;;;;;;49.40;41.90;;;;;;;-128.00;-1.00;-1.00;105951;1250;1004241;-70
2023/10/11 00:13:50;;;;;;;47.80;41.80;;;;;;;-128.00;-1.00;-1.00;105963;1249;1062459;-70
2023/10/11 00:16:17;;;;;;;50.60;41.80;;;;;;;-128.00;-1.00;-1.00;105943;1250;1005222;-71
2023/10/11 00:18:44;;;;;;;48.70;41.60;;;;;;;-128.00;-1.00;-1.00;105930;1250;1004208;-70
2023/10/11 00:21:12;;;;;;;46.10;41.20;;;;;;;-128.00;-1.00;-1.00;105725;1250;1005708;-70
2023/10/11 00:23:41;;;;;;;52.50;42.80;;;;;;;-128.00;-1.00;-1.00;105952;1249;1004440;-70
2023/10/11 00:26:07;;;;;;;49.80;42.10;;;;;;;-128.00;-1.00;-1.00;105930;1250;1064229;-70
2023/10/11 00:28:36;;;;;;;49.60;40.80;;;;;;;-128.00;-1.00;-1.00;105728;1251;1004720;-70
2023/10/11 00:31:02;;;;;;;47.90;40.00;;;;;;;-128.00;-1.00;-1.00;105911;1250;1003887;-70
2023/10/11 00:33:31;;;;;;;47.50;38.50;;;;;;;-128.00;-1.00;-1.00;106034;1251;1005712;-70
2023/10/11 00:36:01;;;;;;;46.70;40.50;;;;;;;-128.00;-1.00;-1.00;105948;1250;1047595;-70
2023/10/11 00:38:27;;;;;;;50.30;42.40;;;;;;;-128.00;-1.00;-1.00;105898;1251;1060819;-70
2023/10/11 00:41:12;;;;;;;51.20;42.80;;;;;;;-128.00;-1.00;-1.00;106076;1251;1004658;-70
2023/10/11 00:43:41;;;;;;;54.30;47.00;;;;;;;-128.00;-1.00;-1.00;105774;1251;1060019;-70
2023/10/11 00:46:09;;;;;;;55.40;46.60;;;;;;;-128.00;-1.00;-1.00;105883;1249;1046853;-70
2023/10/11 00:48:38;;;;;;;61.50;50.70;;;;;;;-128.00;-1.00;-1.00;105978;1250;1004067;-70
2023/10/11 00:51:07;;;;;;;53.60;45.90;;;;;;;-128.00;-1.00;-1.00;105915;1251;1062286;-70
2023/10/11 00:53:34;;;;;;;54.10;45.70;;;;;;;-128.00;-1.00;-1.00;106063;1250;1055627;-70
2023/10/11 00:56:05;;;;;;;55.80;46.70;;;;;;;-128.00;-1.00;-1.00;105860;1249;1005166;-70
2023/10/11 00:58:32;;;;;;;53.80;45.00;;;;;;;-128.00;-1.00;-1.00;106050;1250;1045933;-70
2023/10/11 01:01:02;;;;;;;57.70;50.00;;;;;;;-128.00;-1.00;-1.00;106057;1251;1005229;-70
2023/10/11 01:03:32;;;;;;;55.80;46.70;;;;;;;-128.00;-1.00;-1.00;106040;1251;1062077;-70
2023/10/11 01:06:00;;;;;;;55.50;49.20;;;;;;;-128.00;-1.00;-1.00;106061;1251;1055735;-70
2023/10/11 01:08:38;;;;;;;56.60;46.00;;;;;;;-128.00;-1.00;-1.00;105883;1250;1005076;-70
2023/10/11 01:11:11;;;;;;;54.40;45.80;;;;;;;-128.00;-1.00;-1.00;106024;1251;1044740;-70
2023/10/11 01:13:40;;;;;;;56.00;47.50;;;;;;;-128.00;-1.00;-1.00;105940;1250;1046249;-70
2023/10/11 01:16:10;;;;;;;55.90;46.70;;;;;;;-128.00;-1.00;-1.00;106089;1249;1061810;-70
2023/10/11 01:18:40;;;;;;;;;;;;;;;-128.00;-1.00;-1.00;105916;1251;1058046;-70
2023/10/11 01:21:07;;;;;;;;;;;;;;;-128.00;-1.00;-1.00;106038;1250;1058878;-70
2023/10/11 01:23:35;;;;;;;54.40;45.60;;;;;;;-128.00;-1.00;-1.00;106039;1249;1003939;-72
2023/10/11 01:26:08;;;;;;;53.30;45.80;;;;;;;-128.00;-1.00;-1.00;106073;1251;1004919;-70
2023/10/11 01:28:48;;;;;;;55.90;46.90;;;;;;;-128.00;-1.00;-1.00;106039;1251;1061769;-70
2023/10/11 01:31:18;;;;;;;51.40;45.40;;;;;;;-128.00;-1.00;-1.00;105957;1250;1055353;-70
2023/10/11 01:33:49;;;;;;;48.60;43.30;;;;;;;-128.00;-1.00;-1.00;105766;1249;1058628;-70
2023/10/11 01:36:17;;;;;;;49.90;43.80;;;;;;;-128.00;-1.00;-1.00;105906;1250;1045297;-70
2023/10/11 01:38:47;;;;;;;51.10;45.50;;;;;;;-128.00;-1.00;-1.00;105922;1250;1047688;-70
2023/10/11 01:41:15;;;;;;;52.90;45.50;;;;;;;-128.00;-1.00;-1.00;105967;1250;1061173;-70
2023/10/11 01:43:45;;;;;;;53.90;44.40;;;;;;;-128.00;-1.00;-1.00;105749;1249;1056974;-70
2023/10/11 01:46:26;;;;;;;;;;;;;;;-128.00;-1.00;-1.00;105906;1250;1059445;-70
2023/10/11 01:48:58;;;;;;;46.10;39.20;;;;;;;-128.00;-1.00;-1.00;105947;1249;1047457;-70
2023/10/11 01:51:27;;;;;;;51.10;44.20;;;;;;;-128.00;-1.00;-1.00;105871;1251;1046522;-70
2023/10/11 01:53:54;;;;;;;49.90;43.30;;;;;;;-128.00;-1.00;-1.00;105932;1249;1060293;-70
2023/10/11 01:56:23;;;;;;;54.30;45.10;;;;;;;-128.00;-1.00;-1.00;105917;1251;1004345;-70
2023/10/11 01:58:51;;;;;;;55.70;49.30;;;;;;;-128.00;-1.00;-1.00;105885;1250;1059026;-70
2023/10/11 02:01:22;;;;;;;63.40;53.80;;;;;;;-128.00;-1.00;-1.00;105900;1251;1003430;-70
2023/10/11 02:03:53;;;;;;;54.40;48.40;;;;;;;-128.00;-1.00;-1.00;105718;1250;1046673;-69
2023/10/11 02:06:21;;;;;;;61.20;50.10;;;;;;;-128.00;-1.00;-1.00;105868;1249;1063553;-70
2023/10/11 02:08:47;;;;;;;59.00;49.90;;;;;;;-128.00;-1.00;-1.00;105924;1249;1004259;-70
2023/10/11 02:11:14;;;;;;;56.10;47.60;;;;;;;-128.00;-1.00;-1.00;105922;1249;1003594;-70
2023/10/11 02:13:43;;;;;;;54.70;47.40;;;;;;;-128.00;-1.00;-1.00;105904;1250;1004893;-70
2023/10/11 02:16:14;;;;;;;55.80;47.50;;;;;;;-128.00;-1.00;-1.00;105982;1250;1046668;-76
2023/10/11 02:18:41;;;;;;;57.30;48.20;;;;;;;-128.00;-1.00;-1.00;105956;1251;1063047;-70
2023/10/11 02:21:08;;;;;;;50.70;44.30;;;;;;;-128.00;-1.00;-1.00;105961;1251;1003933;-68
2023/10/11 02:23:39;;;;;;;54.40;47.00;;;;;;;-128.00;-1.00;-1.00;105859;1250;1005050;-68
2023/10/11 02:26:16;;;;;;;56.60;47.10;;;;;;;-128.00;-1.00;-1.00;105718;1250;1045710;-69
2023/10/11 02:28:45;;;;;;;56.60;50.00;;;;;;;-128.00;-1.00;-1.00;105901;1250;1047318;-69
2023/10/11 02:31:19;;;;;;;53.70;46.80;;;;;;;-128.00;-1.00;-1.00;105889;1251;1061952;-69
2023/10/11 02:34:03;;;;;;;52.70;46.40;;;;;;;-128.00;-1.00;-1.00;105766;1251;1054572;-70
2023/10/11 02:36:35;;;;;;;49.60;44.30;;;;;;;-128.00;-1.00;-1.00;105728;1250;1059170;-69
2023/10/11 02:39:05;;;;;;;51.90;45.10;;;;;;;-128.00;-1.00;-1.00;105943;1251;1047667;-69
2023/10/11 02:41:32;;;;;;;52.20;44.50;;;;;;;-128.00;-1.00;-1.00;105883;1251;1048205;-69
2023/10/11 02:44:01;;;;;;;55.10;44.70;;;;;;;-128.00;-1.00;-1.00;105901;1250;1004596;-69
2023/10/11 02:46:32;;;;;;;51.10;44.80;;;;;;;-128.00;-1.00;-1.00;105871;1251;1056840;-69
2023/10/11 02:49:18;;;;;;;52.30;42.60;;;;;;;-128.00;-1.00;-1.00;105907;1251;1059131;-70
2023/10/11 02:51:52;;;;;;;48.50;42.80;;;;;;;-128.00;-1.00;-1.00;105912;1251;1046759;-69
2023/10/11 02:54:20;;;;;;;49.90;44.40;;;;;;;-128.00;-1.00;-1.00;105928;1251;1048413;-69
2023/10/11 02:56:46;;;;;;;48.50;42.30;;;;;;;-128.00;-1.00;-1.00;105940;1249;1003850;-70
2023/10/11 02:59:23;;;;;;;48.30;42.60;;;;;;;-128.00;-1.00;-1.00;105956;1250;1004333;-69
2023/10/11 03:02:00;;;;;;;48.30;42.20;;;;;;;-128.00;-1.00;-1.00;105877;1251;1058904;-69
2023/10/11 03:04:29;;;;;;;47.80;41.90;;;;;;;-128.00;-1.00;-1.00;105892;1251;1047586;-70
2023/10/11 03:06:55;;;;;;;47.80;41.90;;;;;;;-128.00;-1.00;-1.00;105906;1251;1046879;-69
2023/10/11 03:09:27;;;;;;;48.40;41.80;;;;;;;-128.00;-1.00;-1.00;105925;1250;1004213;-70
2023/10/11 03:11:56;;;;;;;54.50;44.00;;;;;;;-128.00;-1.00;-1.00;105902;1251;1055420;-69
2023/10/11 03:14:25;;;;;;;47.70;41.20;;;;;;;-128.00;-1.00;-1.00;105887;1251;1059807;-68
2023/10/11 03:17:06;;;;;;;48.00;42.50;;;;;;;-128.00;-1.00;-1.00;105931;1251;1046929;-69
2023/10/11 03:19:34;;;;;;;45.60;40.70;;;;;;;-128.00;-1.00;-1.00;105905;1250;1047623;-69
2023/10/11 03:22:02;;;;;;;46.50;41.30;;;;;;;-128.00;-1.00;-1.00;105878;1251;1061391;-69
2023/10/11 03:24:33;;;;;;;46.60;41.60;;;;;;;-128.00;-1.00;-1.00;105888;1250;1003555;-69
2023/10/11 03:27:01;;;;;;;47.50;42.40;;;;;;;-128.00;-1.00;-1.00;105910;1249;1059246;-69
2023/10/11 03:29:30;;;;;;;47.70;41.40;;;;;;;-128.00;-1.00;-1.00;105882;1251;1005068;-69
2023/10/11 03:31:57;;;;;;;47.90;40.50;;;;;;;-128.00;-1.00;-1.00;105900;1249;1046936;-69
2023/10/11 03:34:24;;;;;;;47.10;41.90;;;;;;;-128.00;-1.00;-1.00;105932;1251;1003988;-69
2023/10/11 03:36:50;;;;;;;44.80;38.80;;;;;;;-128.00;-1.00;-1.00;105920;1251;1004109;-69
2023/10/11 03:39:31;;;;;;;41.80;37.30;;;;;;;-128.00;-1.00;-1.00;105891;1251;1004281;-70
2023/10/11 03:42:07;;;;;;;43.70;38.90;;;;;;;-128.00;-1.00;-1.00;105878;1250;1046284;-69
2023/10/11 03:44:40;;;;;;;45.10;36.60;;;;;;;-128.00;-1.00;-1.00;105966;1250;1046821;-70
2023/10/11 03:47:14;;;;;;;46.50;39.80;;;;;;;-128.00;-1.00;-1.00;105885;1249;1062690;-70
2023/10/11 03:52:30;;;;;;;43.70;38.80;;;;;;;-128.00;-1.00;-1.00;105912;1250;1004314;-69
2023/10/11 03:55:10;;;;;;;45.00;38.60;;;;;;;-128.00;-1.00;-1.00;105856;1251;1045774;-69
2023/10/11 03:57:45;;;;;;;41.40;36.50;;;;;;;-128.00;-1.00;-1.00;105907;1251;1047832;-69
2023/10/11 04:03:02;;;;;;;43.30;37.60;;;;;;;-128.00;-1.00;-1.00;105935;1250;1055011;-69
2023/10/11 04:05:34;;;;;;;;;;;;;;;-128.00;-1.00;-1.00;105906;1250;1059075;-69
2023/10/11 04:08:05;;;;;;;39.40;34.20;;;;;;;-128.00;-1.00;-1.00;105890;1249;1045455;-69
2023/10/11 04:10:39;;;;;;;45.90;37.20;;;;;;;-128.00;-1.00;-1.00;105723;1250;1048188;-69
2023/10/11 04:13:09;;;;;;;41.50;36.90;;;;;;;-128.00;-1.00;-1.00;105933;1250;1062649;-70
2023/10/11 04:15:39;;;;;;;39.50;35.30;;;;;;;-128.00;-1.00;-1.00;105920;1251;1058718;-70
2023/10/11 04:18:14;;;;;;;40.60;34.60;;;;;;;-128.00;-1.00;-1.00;105886;1251;1058902;-70
2023/10/11 04:20:51;;;;;;;39.10;34.80;;;;;;;-128.00;-1.00;-1.00;105819;1250;1046486;-70
2023/10/11 04:23:24;;;;;;;39.40;35.20;;;;;;;-128.00;-1.00;-1.00;105924;1249;1048599;-69
2023/10/11 04:25:50;;;;;;;38.40;33.60;;;;;;;-128.00;-1.00;-1.00;105945;1251;1062208;-70
2023/10/11 04:28:17;;;;;;;37.70;33.30;;;;;;;-128.00;-1.00;-1.00;105994;1251;1005651;-69
2023/10/11 04:30:44;;;;;;;40.50;34.20;;;;;;;-128.00;-1.00;-1.00;105890;1251;1004283;-70
2023/10/11 04:33:20;;;;;;;41.60;33.00;;;;;;;-128.00;-1.00;-1.00;105964;1250;1004241;-69
2023/10/11 04:35:55;;;;;;;41.30;34.20;;;;;;;-128.00;-1.00;-1.00;105968;1249;1048668;-69
2023/10/11 04:38:22;;;;;;;39.60;35.40;;;;;;;-128.00;-1.00;-1.00;105956;1251;1061834;-68
2023/10/11 04:40:51;;;;;;;41.10;36.80;;;;;;;-128.00;-1.00;-1.00;105926;1249;1003878;-69
2023/10/11 04:43:25;;;;;;;43.90;37.50;;;;;;;-128.00;-1.00;-1.00;105950;1250;1059886;-69
2023/10/11 04:45:54;;;;;;;46.10;37.20;;;;;;;-128.00;-1.00;-1.00;105925;1251;1045930;-68
2023/10/11 04:48:41;;;;;;;46.40;40.20;;;;;;;-128.00;-1.00;-1.00;105927;1250;1046639;-68
2023/10/11 04:59:06;;;;;;;47.20;40.10;;;;;;;-128.00;-1.00;-1.00;105901;1249;1045796;-70
2023/10/11 05:04:16;;;;;;;45.20;39.40;;;;;;;-128.00;-1.00;-1.00;105941;1250;1061166;-69
2023/10/11 05:06:44;;;;;;;43.70;38.10;;;;;;;-128.00;-1.00;-1.00;105944;1249;1003480;-70
2023/10/11 05:09:21;;;;;;;46.50;39.60;;;;;;;-128.00;-1.00;-1.00;105878;1250;1004779;-70
2023/10/11 05:11:53;;;;;;;47.40;39.50;;;;;;;-128.00;-1.00;-1.00;105974;1250;1046064;-69
2023/10/11 05:14:28;;;;;;;56.50;46.80;;;;;;;-128.00;-1.00;-1.00;105969;1250;1047422;-69
2023/10/11 05:27:58;;;;;;;;;;;;;;;-128.00;-1.00;-1.00;105943;1249;1046066;-70
2023/10/11 05:36:14;;;;;;;45.70;39.90;;;;;;;-128.00;-1.00;-1.00;105738;1249;1058748;-69
2023/10/11 05:52:36;;;;;;;43.70;38.80;;;;;;;-128.00;-1.00;-1.00;105265;1257;1046097;-70
2023/10/11 05:55:06;;;;;;;47.80;42.90;;;;;;;-128.00;-1.00;-1.00;105416;1256;1003512;-70
2023/10/11 05:57:32;;;;;;;45.70;40.80;;;;;;;-128.00;-1.00;-1.00;105736;1249;1062269;-70
2023/10/11 06:00:17;;;;;;;53.10;47.40;;;;;;;-128.00;-1.00;-1.00;105957;1249;1004038;-69
2023/10/11 06:02:44;;;;;;;56.10;50.10;;;;;;;-128.00;-1.00;-1.00;105935;1249;1058946;-69
2023/10/11 06:05:11;;;;;;;53.60;47.80;;;;;;;-128.00;-1.00;-1.00;105852;1250;1004730;-68
2023/10/11 06:07:37;;;;;;;46.30;41.40;;;;;;;-128.00;-1.00;-1.00;105969;1249;1004685;-70
2023/10/11 06:10:08;;;;;;;41.40;36.90;;;;;;;-128.00;-1.00;-1.00;105915;1249;1003518;-70
2023/10/11 06:12:35;;;;;;;39.90;35.60;;;;;;;-128.00;-1.00;-1.00;105975;1249;1056106;-70
2023/10/11 06:15:05;;;;;;;39.70;34.30;;;;;;;-128.00;-1.00;-1.00;105903;1249;1004689;-69
2023/10/11 06:17:41;;;;;;;;;;;;;;;-128.00;-1.00;-1.00;105905;1249;1045961;-69
2023/10/11 06:20:28;;;;;;;41.00;36.40;;;;;;;-128.00;-1.00;-1.00;105961;1249;1046525;-69
2023/10/11 06:22:55;;;;;;;43.00;38.40;;;;;;;-128.00;-1.00;-1.00;105859;1251;1061687;-69
2023/10/11 06:28:13;;;;;;;43.00;38.60;;;;;;;-128.00;-1.00;-1.00;105890;1249;1059561;-69
2023/10/11 06:30:46;;;;;;;44.50;39.80;;;;;;;-128.00;-1.00;-1.00;105913;1250;1045798;-69
2023/10/11 06:33:13;;;;;;;45.50;40.80;;;;;;;-128.00;-1.00;-1.00;105919;1249;1046734;-69
2023/10/11 06:35:43;;;;;;;42.40;37.90;;;;;;;-128.00;-1.00;-1.00;105964;1249;1004809;-69
2023/10/11 06:38:13;;;;;;;46.90;41.90;;;;;;;-128.00;-1.00;-1.00;105923;1249;1055427;-70
2023/10/11 06:40:39;;;;;;;48.90;43.70;;;;;;;-128.00;-1.00;-1.00;105904;1249;1059098;-69
2023/10/11 06:43:07;;;;;;;47.70;43.00;;;;;;;-128.00;-1.00;-1.00;105888;1249;1004283;-69
2023/10/11 06:45:35;;;;;;;47.70;38.70;;;;;;;-128.00;-1.00;-1.00;105793;1249;1004240;-69
2023/10/11 06:48:08;;;;;;;40.30;36.00;;;;;;;-128.00;-1.00;-1.00;105921;1251;1004313;-70
2023/10/11 06:50:38;;;;;;;42.40;37.80;;;;;;;-128.00;-1.00;-1.00;105985;1249;1054525;-70
2023/10/11 06:53:07;;;;;;;38.90;34.90;;;;;;;-128.00;-1.00;-1.00;105949;1249;1059013;-70
2023/10/11 06:55:47;;;;;;;39.10;34.90;;;;;;;-128.00;-1.00;-1.00;105895;1249;1047110;-68
2023/10/11 06:58:19;;;;;;;38.30;32.90;;;;;;;-128.00;-1.00;-1.00;105900;1250;1047518;-71
2023/10/11 07:00:45;;;;;;;43.30;35.80;;;;;;;-128.00;-1.00;-1.00;105925;1249;1062271;-70
2023/10/11 07:05:48;;;;;;;67.70;46.70;;;;;;;-128.00;-1.00;-1.00;105917;1249;1059038;-70
2023/10/11 07:08:20;;;;;;;65.00;42.00;;;;;;;-128.00;-1.00;-1.00;105922;1249;1004428;-70
2023/10/11 07:16:19;;;;;;;41.50;30.20;;;;;;;-128.00;-1.00;-1.00;105923;1249;1056616;-69
2023/10/11 07:18:46;;;;;;;45.20;34.50;;;;;;;-128.00;-1.00;-1.00;105909;1250;1003974;-70
2023/10/11 07:21:19;;;;;;;39.10;34.50;;;;;;;-128.00;-1.00;-1.00;105953;1249;1005281;-70
2023/10/11 07:23:55;;;;;;;42.60;33.80;;;;;;;-128.00;-1.00;-1.00;105741;1254;1047700;-70
2023/10/11 07:28:59;;;;;;;48.40;36.20;;;;;;;-128.00;-1.00;-1.00;105899;1250;1056594;-70
2023/10/11 07:31:35;;;;;;;45.30;33.90;;;;;;;-128.00;-1.00;-1.00;105927;1249;1005276;-70
2023/10/11 07:34:05;;;;;;;40.80;29.30;;;;;;;-128.00;-1.00;-1.00;105943;1249;1046464;-70
2023/10/11 07:36:39;;;;;;;33.80;25.20;;;;;;;-128.00;-1.00;-1.00;105930;1249;1045939;-70
2023/10/11 07:42:08;;;;;;;25.80;19.00;;;;;;;-128.00;-1.00;-1.00;105953;1251;1055140;-69
2023/10/11 07:44:39;;;;;;;17.00;13.80;;;;;;;-128.00;-1.00;-1.00;105869;1249;1058919;-70
2023/10/11 07:47:07;;;;;;;13.90;12.30;;;;;;;-128.00;-1.00;-1.00;105888;1249;1045031;-70
2023/10/11 07:49:40;;;;;;;14.20;12.10;;;;;;;-128.00;-1.00;-1.00;105933;1249;1004213;-70
2023/10/11 07:52:13;;;;;;;16.10;11.40;;;;;;;-128.00;-1.00;-1.00;105949;1249;1061614;-70
2023/10/11 07:54:39;;;;;;;14.30;10.70;;;;;;;-128.00;-1.00;-1.00;105942;1249;1056307;-70
2023/10/11 07:57:14;;;;;;;12.20;8.70;;;;;;;-128.00;-1.00;-1.00;105951;1249;1003526;-70
2023/10/11 07:59:44;;;;;;;10.70;9.00;;;;;;;-128.00;-1.00;-1.00;105902;1249;1045805;-70
2023/10/11 08:02:26;;;;;;;10.10;7.80;;;;;;;-128.00;-1.00;-1.00;105996;1249;1046701;-70
2023/10/11 08:04:54;;;;;;;11.20;7.20;;;;;;;-128.00;-1.00;-1.00;105953;1249;1061715;-69
2023/10/11 08:07:22;;;;;;;9.90;7.20;;;;;;;-128.00;-1.00;-1.00;105922;1250;1004370;-69
2023/10/11 08:09:52;;;;;;;9.30;6.60;;;;;;;-128.00;-1.00;-1.00;105934;1249;1003592;-69
2023/10/11 08:12:23;;;;;;;8.80;6.30;;;;;;;-128.00;-1.00;-1.00;105932;1249;1046098;-69
2023/10/11 08:14:53;;;;;;;10.60;6.20;;;;;;;-128.00;-1.00;-1.00;105974;1249;1046620;-69
2023/10/11 08:17:21;;;;;;;10.60;6.70;;;;;;;-128.00;-1.00;-1.00;105912;1250;1061872;-72
2023/10/11 08:19:53;;;;;;;11.30;6.80;;;;;;;-128.00;-1.00;-1.00;105897;1249;1004245;-70
2023/10/11 08:22:22;;;;;;;8.70;6.00;;;;;;;-128.00;-1.00;-1.00;105939;1249;1058834;-69
2023/10/11 08:24:50;;;;;;;9.20;5.90;;;;;;;-128.00;-1.00;-1.00;105742;1249;1045573;-70
2023/10/11 08:27:28;;;;;;;10.50;6.00;;;;;;;-128.00;-1.00;-1.00;105784;1250;1004562;-69
2023/10/11 08:32:38;;;;;;;6.70;4.90;;;;;;;-128.00;-1.00;-1.00;105944;1250;1055790;-70
2023/10/11 08:35:09;;;;;;;6.70;4.90;;;;;;;-128.00;-1.00;-1.00;105878;1249;1059416;-69
2023/10/11 08:37:37;;;;;;;9.60;4.70;;;;;;;-128.00;-1.00;-1.00;105974;1249;1045987;-70
2023/10/11 08:40:29;;;;;;;10.40;5.70;;;;;;;-128.00;-1.00;-1.00;105994;1249;1004327;-70
2023/10/11 08:42:59;;;;;;;8.60;4.60;;;;;;;-128.00;-1.00;-1.00;105668;1250;1062820;-71
2023/10/11 08:45:34;;;;;;;7.80;5.00;;;;;;;-128.00;-1.00;-1.00;105697;1249;1055737;-69
2023/10/11 08:48:06;;;;;;;9.20;4.50;;;;;;;-128.00;-1.00;-1.00;105907;1249;1059682;-70
2023/10/11 08:50:37;;;;;;;8.30;4.50;;;;;;;-128.00;-1.00;-1.00;105877;1250;1046125;-71
2023/10/11 08:53:08;;;;;;;7.20;4.50;;;;;;;-128.00;-1.00;-1.00;105901;1249;1047174;-69
2023/10/11 08:55:39;;;;;;;5.30;3.70;;;;;;;-128.00;-1.00;-1.00;105890;1249;1062099;-69
2023/10/11 08:58:12;;;;;;;7.00;4.40;;;;;;;-128.00;-1.00;-1.00;105902;1250;1056241;-72
2023/10/11 09:00:39;;;;;;;8.90;4.90;;;;;;;-128.00;-1.00;-1.00;105892;1249;1059321;-69
2023/10/11 09:03:17;;;;;;;8.50;4.30;;;;;;;-128.00;-1.00;-1.00;105899;1249;1004558;-69
2023/10/11 09:05:45;;;;;;;8.20;4.40;;;;;;;-128.00;-1.00;-1.00;105913;1250;1049388;-69
2023/10/11 09:08:31;;;;;;;7.90;4.30;;;;;;;-128.00;-1.00;-1.00;105874;1249;1003839;-69
2023/10/11 09:11:32;;;;;;;9.50;4.90;;;;;;;-128.00;-1.00;-1.00;105968;1249;1054918;-70
2023/10/11 09:14:22;;;;;;;7.60;5.20;;;;;;;-128.00;-1.00;-1.00;105870;1249;1059465;-69
2023/10/11 09:16:57;;;;;;;8.40;4.70;;;;;;;-128.00;-1.00;-1.00;105910;1249;1046863;-68
2023/10/11 09:19:24;;;;;;;8.00;4.60;;;;;;;-128.00;-1.00;-1.00;105925;1250;1046334;-70
2023/10/11 09:22:17;;;;;;;6.30;4.20;;;;;;;-128.00;-1.00;-1.00;105963;1249;1004199;-69
2023/10/11 09:24:44;;;;;;;6.20;4.80;;;;;;;-128.00;-1.00;-1.00;105963;1249;1056157;-69
2023/10/11 09:29:46;;;;;;;8.20;4.40;;;;;;;-128.00;-1.00;-1.00;105950;1249;1045632;-69
2023/10/11 09:32:14;;;;;;;8.10;4.40;;;;;;;-128.00;-1.00;-1.00;105916;1249;1046520;-69
2023/10/11 09:34:43;;;;;;;7.10;4.40;;;;;;;-128.00;-1.00;-1.00;105948;1249;1004927;-69
2023/10/11 09:37:13;;;;;;;7.90;5.30;;;;;;;-128.00;-1.00;-1.00;105901;1250;1056868;-69
2023/10/11 09:39:42;;;;;;;8.10;4.20;;;;;;;-128.00;-1.00;-1.00;105891;1249;1062079;-68
2023/10/11 09:42:13;;;;;;;9.60;4.80;;;;;;;-128.00;-1.00;-1.00;105885;1249;1046518;-68
2023/10/11 09:44:43;;;;;;;13.80;4.70;;;;;;;-128.00;-1.00;-1.00;105981;1249;1048368;-68
2023/10/11 09:47:17;;;;;;;6.80;4.40;;;;;;;-128.00;-1.00;-1.00;105930;1249;1061784;-69
2023/10/11 09:49:46;;;;;;;10.10;4.30;;;;;;;-128.00;-1.00;-1.00;105967;1249;1056203;-69
2023/10/11 09:52:17;;;;;;;7.00;4.50;;;;;;;-128.00;-1.00;-1.00;105646;1249;1059570;-69
2023/10/11 09:54:45;;;;;;;8.60;5.00;;;;;;;-128.00;-1.00;-1.00;105695;1250;1045969;-69
2023/10/11 09:57:20;;;;;;;7.10;4.20;;;;;;;-128.00;-1.00;-1.00;105887;1249;1005288;-69
2023/10/11 10:00:08;;;;;;;8.70;4.90;;;;;;;-128.00;-1.00;-1.00;105717;1249;1063248;-69
2023/10/11 10:02:37;;;;;;;9.90;4.80;;;;;;;-128.00;-1.00;-1.00;105902;1249;1056558;-69
2023/10/11 10:05:07;;;;;;;7.90;4.50;;;;;;;-128.00;-1.00;-1.00;105890;1249;1057936;-69
2023/10/11 10:10:10;;;;;;;6.00;4.10;;;;;;;-128.00;-1.00;-1.00;105916;1249;1047552;-69
2023/10/11 10:12:55;;;;;;;9.20;4.30;;;;;;;-128.00;-1.00;-1.00;105940;1249;1062531;-69
2023/10/11 10:15:28;;;;;;;7.20;4.50;;;;;;;-128.00;-1.00;-1.00;105896;1250;1055633;-68
2023/10/11 10:17:56;;;;;;;8.00;5.30;;;;;;;-128.00;-1.00;-1.00;105954;1249;1059485;-68
2023/10/11 10:23:16;;;;;;;7.20;4.30;;;;;;;-128.00;-1.00;-1.00;105946;1249;1047478;-69
2023/10/11 10:26:03;;;;;;;12.10;4.60;;;;;;;-128.00;-1.00;-1.00;105906;1249;1061721;-68
2023/10/11 10:28:35;;;;;;;9.00;4.70;;;;;;;-128.00;-1.00;-1.00;105231;1257;1055891;-69
2023/10/11 10:31:18;;;;;;;8.00;4.70;;;;;;;-128.00;-1.00;-1.00;105246;1257;1059203;-69
2023/10/11 10:33:50;;;;;;;8.00;4.60;;;;;;;-128.00;-1.00;-1.00;105252;1257;1046755;-71
2023/10/11 10:36:17;;;;;;;9.20;5.00;;;;;;;-128.00;-1.00;-1.00;105296;1257;1046322;-68
2023/10/11 10:41:41;;;;;;;8.10;4.50;;;;;;;-128.00;-1.00;-1.00;105283;1256;1056265;-69
2023/10/11 10:44:10;;;;;;;11.10;5.40;;;;;;;-128.00;-1.00;-1.00;105268;1256;1059574;-70
2023/10/11 10:46:55;;;;;;;8.00;4.80;;;;;;;-128.00;-1.00;-1.00;105232;1257;1005020;-68
2023/10/11 10:49:40;;;;;;;8.90;4.70;;;;;;;-128.00;-1.00;-1.00;105251;1256;1046874;-68
2023/10/11 10:52:22;;;;;;;11.30;4.50;;;;;;;-128.00;-1.00;-1.00;105275;1257;1062691;-69
2023/10/11 10:55:07;;;;;;;7.60;5.20;;;;;;;-128.00;-1.00;-1.00;105293;1256;1056547;-69
2023/10/11 10:57:38;;;;;;;9.70;5.10;;;;;;;-128.00;-1.00;-1.00;105237;1256;1059881;-68
2023/10/11 11:00:22;;;;;;;10.00;5.00;;;;;;;-128.00;-1.00;-1.00;105235;1258;1044247;-70
2023/10/11 11:02:50;;;;;;;7.30;4.70;;;;;;;-128.00;-1.00;-1.00;105231;1257;1048160;-70
2023/10/11 11:05:24;;;;;;;6.80;4.50;;;;;;;-128.00;-1.00;-1.00;105475;1249;1003967;-70
2023/10/11 11:07:50;;;;;;;8.30;4.50;;;;;;;-128.00;-1.00;-1.00;105948;1249;1056371;-71
2023/10/11 11:10:19;;;;;;;9.70;4.90;;;;;;;-128.00;-1.00;-1.00;105928;1249;1003633;-71
2023/10/11 11:12:46;;;;;;;8.30;4.60;;;;;;;-128.00;-1.00;-1.00;105947;1249;1003540;-72
2023/10/11 11:15:20;;;;;;;9.10;4.90;;;;;;;-128.00;-1.00;-1.00;105965;1249;1003981;-72
2023/10/11 11:17:51;;;;;;;6.90;4.50;;;;;;;-128.00;-1.00;-1.00;105799;1249;1062085;-69
2023/10/11 11:22:52;;;;;;;7.20;4.10;;;;;;;-128.00;-1.00;-1.00;105968;1249;1059192;-72
2023/10/11 11:25:27;;;;;;;5.90;3.90;;;;;;;-128.00;-1.00;-1.00;105918;1249;1044988;-71
2023/10/11 11:28:17;;;;;;;8.30;4.60;;;;;;;-128.00;-1.00;-1.00;105935;1250;1046893;-69
2023/10/11 11:31:04;;;;;;;5.70;3.70;;;;;;;-128.00;-1.00;-1.00;105945;1249;1062408;-69
2023/10/11 11:33:47;;;;;;;7.30;3.80;;;;;;;-128.00;-1.00;-1.00;105909;1249;1055581;-70
2023/10/11 11:36:30;;;;;;;5.60;4.20;;;;;;;-128.00;-1.00;-1.00;105906;1249;1058703;-70
2023/10/11 11:39:17;;;;;;;7.40;4.20;;;;;;;-128.00;-1.00;-1.00;105893;1250;1045651;-69
2023/10/11 11:41:53;;;;;;;9.70;4.50;;;;;;;-128.00;-1.00;-1.00;105955;1249;1047397;-70
2023/10/11 11:44:20;;;;;;;8.70;4.60;;;;;;;-128.00;-1.00;-1.00;105888;1250;1062044;-70
2023/10/11 11:46:52;;;;;;;7.80;4.30;;;;;;;-128.00;-1.00;-1.00;105748;1249;1004381;-70
2023/10/11 11:49:21;;;;;;;7.50;4.30;;;;;;;-128.00;-1.00;-1.00;105899;1250;1059308;-70
2023/10/11 11:51:50;;;;;;;;;;;;;;;-128.00;-1.00;-1.00;105955;1249;1043944;-71
2023/10/11 11:54:21;;;;;;;7.70;4.00;;;;;;;-128.00;-1.00;-1.00;105936;1250;1046625;-71
2023/10/11 11:56:48;;;;;;;6.00;4.20;;;;;;;-128.00;-1.00;-1.00;105976;1249;1062038;-71
2023/10/11 11:59:18;;;;;;;6.60;3.80;;;;;;;-128.00;-1.00;-1.00;105762;1249;1004407;-71
2023/10/11 12:01:45;;;;;;;7.00;4.10;;;;;;;-128.00;-1.00;-1.00;105891;1249;1058866;-71
2023/10/11 12:04:13;;;;;;;9.30;4.80;;;;;;;-128.00;-1.00;-1.00;105935;1249;1003977;-71
2023/10/11 12:06:39;;;;;;;8.70;4.60;;;;;;;-128.00;-1.00;-1.00;105978;1249;1004464;-71
2023/10/11 12:09:06;;;;;;;7.10;3.90;;;;;;;-128.00;-1.00;-1.00;105958;1249;1006327;-70
2023/10/11 12:11:33;;;;;;;5.60;4.30;;;;;;;-128.00;-1.00;-1.00;105913;1249;1005367;-71
2023/10/11 12:14:03;;;;;;;9.30;4.20;;;;;;;-128.00;-1.00;-1.00;105698;1250;1003556;-70
2023/10/11 12:16:30;;;;;;;7.80;3.90;;;;;;;-128.00;-1.00;-1.00;105924;1250;1044031;-70
2023/10/11 12:18:59;;;;;;;9.00;4.60;;;;;;;-128.00;-1.00;-1.00;105955;1249;1004525;-72
2023/10/11 12:21:27;;;;;;;6.90;4.50;;;;;;;-128.00;-1.00;-1.00;105929;1249;1062300;-70
2023/10/11 12:23:53;;;;;;;6.40;4.40;;;;;;;-128.00;-1.00;-1.00;105920;1249;1004500;-71
2023/10/11 12:26:20;;;;;;;10.60;4.70;;;;;;;-128.00;-1.00;-1.00;105937;1249;1004932;-71
2023/10/11 12:28:48;;;;;;;8.40;4.50;;;;;;;-128.00;-1.00;-1.00;105903;1249;1004110;-71
2023/10/11 12:31:16;;;;;;;8.90;4.10;;;;;;;-128.00;-1.00;-1.00;105988;1249;1004303;-71
2023/10/11 12:33:43;;;;;;;8.40;4.80;;;;;;;-128.00;-1.00;-1.00;105903;1249;1063327;-70
2023/10/11 12:36:11;;;;;;;11.30;4.30;;;;;;;-128.00;-1.00;-1.00;105756;1250;1004135;-70
2023/10/11 12:38:39;;;;;;;7.60;4.40;;;;;;;-128.00;-1.00;-1.00;105901;1250;1004071;-71
2023/10/11 12:41:07;;;;;;;9.00;5.60;;;;;;;-128.00;-1.00;-1.00;105913;1249;1044884;-69
2023/10/11 12:43:34;;;;;;;9.40;4.70;;;;;;;-128.00;-1.00;-1.00;105931;1249;1003284;-69
2023/10/11 12:46:01;;;;;;;7.40;4.60;;;;;;;-128.00;-1.00;-1.00;105936;1249;1003264;-69
2023/10/11 12:48:28;;;;;;;8.20;4.80;;;;;;;-128.00;-1.00;-1.00;105911;1250;1004083;-70